East Sandwich, Massachusetts
Current Conditions -  °F | °C
As of 4:35 AM on Wednesday 22 Oct 2014 (Local Time) from KFMH Reporting Station
Overcast Overcast  
Wind Chill: 57°   Ceiling: 600
Heat Index: 57°   Visibility: 9mi
Dew Point: 55°   Wind: 10mph
Humidity: 94%   Direction: 40°NE
Pressure: 29.93"   Gusts: NA
Location:  41.74°N, 70.43°W
Report Text: KFMH 220835Z AUTO 04009KT 9SM BKN006 OVC010 14/13 A2993 RMK AO2
Loading
Personal Weather Stations






























Interactive Weather Map
Tropical Storm Tracking
New forecast layout! Learn more

10-Day Weather Forecast

Advertisements
Track Severe Weather on mobile